Abadan, Abadan Airport (OIAA)

NameAbadan Airport
CityAbadan
CountryIraq
ICAOOIAA
IATAABD
Altitude6 m
CoordinatesGoogle Map
Live Air TrafficLiveATC.net
METAROIAA 122100Z 22002KT CAVOK 18/11 Q1016
2019-11-12 21:00:00 Wind: South-Southwest (220°) 1.03 m/s - Visibility: > 10000 m - Weather: CAVOK - Temperature: 18 °C - Dew point: 11 °C - Humidity: 63.8% - Pressure: 1016 hPa
Statistics

The table below shows the detailed information of all flights to/from Abadan, Abadan Airport (OIAA).